createdAt,value
2018-11-07T00:00:38.535Z,5.50
2018-11-07T00:03:06.775Z,5.50
2018-11-07T00:05:35.007Z,5.50
2018-11-07T00:08:03.346Z,5.50
2018-11-07T00:10:31.458Z,5.40
2018-11-07T00:12:59.922Z,5.40
2018-11-07T00:15:28.606Z,5.30
2018-11-07T00:17:57.031Z,5.30
2018-11-07T00:20:25.704Z,5.30
2018-11-07T00:22:54.150Z,5.30
2018-11-07T00:25:22.649Z,5.20
2018-11-07T00:27:50.881Z,5.20
2018-11-07T00:30:19.365Z,5.10
2018-11-07T00:32:47.553Z,5.00
2018-11-07T00:35:16.102Z,5.00
2018-11-07T00:37:44.242Z,4.90
2018-11-07T00:40:13.088Z,5.00
2018-11-07T00:42:41.512Z,5.00
2018-11-07T00:45:11.276Z,5.00
2018-11-07T00:47:39.520Z,5.00
2018-11-07T00:50:13.835Z,5.10
2018-11-07T00:52:42.944Z,5.10
2018-11-07T00:55:11.955Z,5.20
2018-11-07T00:57:40.210Z,5.30
2018-11-07T01:00:10.846Z,5.40
2018-11-07T01:02:39.079Z,5.50
2018-11-07T01:05:08.268Z,5.60
2018-11-07T01:07:36.501Z,5.50
2018-11-07T01:10:05.252Z,5.40
2018-11-07T01:12:34.357Z,5.20
2018-11-07T01:15:02.569Z,5.10
2018-11-07T01:17:30.802Z,4.90
2018-11-07T01:19:59.122Z,4.80
2018-11-07T01:22:27.481Z,4.80
2018-11-07T01:24:55.683Z,4.80
2018-11-07T01:27:23.897Z,4.80
2018-11-07T01:29:52.095Z,4.90
2018-11-07T01:32:20.306Z,5.00
2018-11-07T01:34:48.495Z,4.90
2018-11-07T01:37:17.050Z,4.90
2018-11-07T01:39:45.258Z,4.80
2018-11-07T01:42:13.463Z,4.80
2018-11-07T01:44:41.644Z,4.80
2018-11-07T01:47:09.842Z,4.70
2018-11-07T01:49:38.048Z,4.70
2018-11-07T01:52:07.073Z,4.70
2018-11-07T01:54:35.887Z,4.80
2018-11-07T01:57:04.083Z,4.80
2018-11-07T01:59:32.292Z,4.80
2018-11-07T02:02:00.482Z,4.80
2018-11-07T02:04:28.670Z,4.70
2018-11-07T02:06:56.878Z,4.60
2018-11-07T02:09:25.363Z,4.60
2018-11-07T02:11:53.585Z,4.50
2018-11-07T02:14:21.783Z,4.50
2018-11-07T02:16:49.984Z,4.50
2018-11-07T02:19:18.745Z,4.50
2018-11-07T02:21:46.964Z,4.50
2018-11-07T02:24:16.026Z,4.50
2018-11-07T02:26:44.219Z,4.50
2018-11-07T02:29:14.595Z,4.50
2018-11-07T02:31:44.815Z,4.40
2018-11-07T02:34:13.809Z,4.40
2018-11-07T02:36:42.309Z,4.40
2018-11-07T02:39:12.908Z,4.30
2018-11-07T02:41:41.721Z,4.30
2018-11-07T02:44:10.891Z,4.30
2018-11-07T02:46:39.180Z,4.20
2018-11-07T02:49:07.378Z,4.30
2018-11-07T02:51:35.782Z,4.20
2018-11-07T02:54:03.986Z,4.20
2018-11-07T02:56:32.180Z,4.10
2018-11-07T02:59:00.378Z,4.10
2018-11-07T03:01:30.116Z,4.00
2018-11-07T03:03:58.607Z,4.00
2018-11-07T03:06:27.058Z,3.90
2018-11-07T03:08:55.260Z,3.90
2018-11-07T03:11:23.715Z,4.00
2018-11-07T03:13:52.184Z,4.00
2018-11-07T03:16:20.391Z,4.00
2018-11-07T03:18:48.624Z,4.00
2018-11-07T03:21:17.268Z,4.10
2018-11-07T03:23:45.485Z,4.10
2018-11-07T03:26:13.716Z,4.10
2018-11-07T03:28:42.155Z,4.10
2018-11-07T03:31:10.615Z,4.10
2018-11-07T03:33:39.107Z,4.10
2018-11-07T03:36:07.311Z,4.00
2018-11-07T03:38:35.561Z,3.90
2018-11-07T03:41:03.847Z,3.90
2018-11-07T03:43:32.059Z,3.80
2018-11-07T03:46:01.151Z,3.80
2018-11-07T03:48:30.578Z,3.70
2018-11-07T03:50:59.046Z,3.80
2018-11-07T03:53:27.596Z,3.70
2018-11-07T03:55:55.938Z,3.70
2018-11-07T03:58:24.158Z,3.70
2018-11-07T04:00:52.405Z,3.60
2018-11-07T04:03:20.628Z,3.60
2018-11-07T04:05:48.851Z,3.60
2018-11-07T04:08:17.286Z,3.60
2018-11-07T04:10:45.698Z,3.60
2018-11-07T04:13:13.891Z,3.50
2018-11-07T04:15:42.210Z,3.50
2018-11-07T04:18:10.485Z,3.40
2018-11-07T04:20:38.687Z,3.40
2018-11-07T04:23:06.887Z,3.30
2018-11-07T04:25:35.311Z,3.30
2018-11-07T04:28:03.495Z,3.30
2018-11-07T04:30:31.696Z,3.20
2018-11-07T04:32:59.899Z,3.20
2018-11-07T04:35:28.367Z,3.20
2018-11-07T04:37:56.559Z,3.20
2018-11-07T04:40:24.771Z,3.20
2018-11-07T04:42:52.975Z,3.10
2018-11-07T04:45:21.182Z,3.10
2018-11-07T04:47:49.455Z,3.10
2018-11-07T04:50:17.653Z,3.20
2018-11-07T04:52:45.845Z,3.10
2018-11-07T04:55:14.055Z,3.10
2018-11-07T04:57:42.476Z,3.00
2018-11-07T05:00:11.860Z,3.00
2018-11-07T05:02:41.185Z,3.00
2018-11-07T05:05:09.492Z,2.90
2018-11-07T05:07:37.929Z,2.90
2018-11-07T05:10:07.572Z,2.90
2018-11-07T05:12:35.759Z,2.90
2018-11-07T05:15:04.043Z,2.80
2018-11-07T05:17:32.251Z,2.80
2018-11-07T05:20:00.492Z,2.80
2018-11-07T05:22:28.727Z,2.80
2018-11-07T05:24:56.983Z,2.90
2018-11-07T05:27:25.287Z,2.90
2018-11-07T05:29:53.542Z,2.90
2018-11-07T05:32:21.992Z,2.90
2018-11-07T05:34:50.207Z,3.00
2018-11-07T05:37:18.427Z,3.00
2018-11-07T05:39:47.124Z,2.90
2018-11-07T05:42:15.572Z,2.80
2018-11-07T05:44:43.786Z,2.80
2018-11-07T05:47:12.017Z,2.80
2018-11-07T05:49:40.226Z,2.80
2018-11-07T05:52:08.492Z,2.80
2018-11-07T05:54:36.718Z,2.80
2018-11-07T05:57:04.967Z,2.80
2018-11-07T05:59:33.177Z,2.80
2018-11-07T06:02:01.742Z,2.80
2018-11-07T06:04:30.834Z,2.80
2018-11-07T06:06:59.054Z,2.80
2018-11-07T06:09:27.270Z,2.90
2018-11-07T06:11:55.622Z,2.90
2018-11-07T06:14:24.162Z,2.90
2018-11-07T06:16:52.440Z,2.30
2018-11-07T06:19:20.683Z,2.80
2018-11-07T06:21:48.903Z,2.80
2018-11-07T06:24:17.166Z,2.80
2018-11-07T06:26:45.488Z,2.80
2018-11-07T06:29:13.676Z,2.80
2018-11-07T06:31:41.892Z,2.80
2018-11-07T06:34:10.089Z,2.80
2018-11-07T06:36:38.300Z,2.90
2018-11-07T06:39:08.335Z,2.90
2018-11-07T06:41:36.600Z,3.00
2018-11-07T06:44:04.908Z,3.00
2018-11-07T06:46:33.086Z,3.00
2018-11-07T06:49:01.279Z,3.10
2018-11-07T06:51:29.487Z,3.10
2018-11-07T06:54:02.956Z,3.20
2018-11-07T06:56:41.102Z,3.20
2018-11-07T06:59:09.496Z,3.30
2018-11-07T07:01:37.789Z,3.40
2018-11-07T07:04:06.403Z,3.40
2018-11-07T07:06:35.510Z,3.50
2018-11-07T07:09:04.995Z,3.50
2018-11-07T07:11:33.211Z,3.60
2018-11-07T07:14:01.634Z,3.70
2018-11-07T07:16:29.824Z,3.80
2018-11-07T07:18:58.011Z,3.80
2018-11-07T07:21:26.244Z,3.90
2018-11-07T07:23:54.443Z,4.00
2018-11-07T07:26:22.707Z,4.00
2018-11-07T07:28:50.933Z,4.10
2018-11-07T07:31:19.398Z,4.20
2018-11-07T07:33:47.653Z,4.30
2018-11-07T07:36:16.016Z,4.40
2018-11-07T07:38:44.890Z,4.50
2018-11-07T07:41:13.100Z,4.60
2018-11-07T07:43:41.340Z,4.80
2018-11-07T07:46:09.775Z,4.90
2018-11-07T07:48:37.979Z,5.10
2018-11-07T07:51:06.413Z,5.30
2018-11-07T07:53:35.440Z,5.40
2018-11-07T07:56:04.286Z,5.50
2018-11-07T07:58:32.514Z,5.60
2018-11-07T08:01:00.700Z,5.60
2018-11-07T08:03:28.898Z,5.60
2018-11-07T08:05:57.319Z,5.80
2018-11-07T08:08:25.535Z,5.90
2018-11-07T08:10:55.086Z,6.20
2018-11-07T08:13:23.367Z,6.30
2018-11-07T08:15:51.527Z,6.30
2018-11-07T08:18:19.751Z,6.40
2018-11-07T08:20:47.975Z,6.50
2018-11-07T08:23:16.203Z,6.60
2018-11-07T08:25:44.643Z,6.70
2018-11-07T08:28:13.083Z,6.80
2018-11-07T08:30:41.365Z,7.00
2018-11-07T08:33:09.747Z,7.10
2018-11-07T08:35:37.959Z,7.30
2018-11-07T08:38:06.200Z,7.50
2018-11-07T08:40:34.645Z,7.60
2018-11-07T08:43:02.869Z,7.60
2018-11-07T08:45:31.087Z,7.70
2018-11-07T08:47:59.571Z,7.80
2018-11-07T08:50:27.750Z,7.90
2018-11-07T08:52:55.967Z,7.80
2018-11-07T08:55:24.178Z,7.90
2018-11-07T08:57:52.443Z,8.00
2018-11-07T09:00:22.044Z,8.30
2018-11-07T09:02:50.762Z,8.40
2018-11-07T09:05:19.827Z,8.50
2018-11-07T09:07:48.517Z,8.60
2018-11-07T09:10:18.030Z,8.60
2018-11-07T09:12:46.271Z,8.60
2018-11-07T09:15:17.137Z,8.70
2018-11-07T09:17:45.346Z,8.60
2018-11-07T09:20:16.110Z,8.60
2018-11-07T09:22:44.301Z,8.60
2018-11-07T09:25:13.623Z,8.60
2018-11-07T09:27:42.229Z,8.70
2018-11-07T09:30:12.524Z,8.90
2018-11-07T09:32:40.982Z,9.00
2018-11-07T09:35:10.502Z,9.00
2018-11-07T09:37:38.927Z,9.00
2018-11-07T09:40:10.445Z,9.10
2018-11-07T09:42:39.747Z,9.30
2018-11-07T09:45:09.759Z,9.50
2018-11-07T09:47:38.211Z,9.70
2018-11-07T09:50:07.461Z,9.90
2018-11-07T09:52:36.109Z,10.00
2018-11-07T09:55:05.012Z,10.10
2018-11-07T09:57:33.233Z,10.20
2018-11-07T10:00:01.630Z,10.40
2018-11-07T10:02:30.035Z,10.60
2018-11-07T10:04:58.243Z,10.90
2018-11-07T10:07:26.446Z,11.00
2018-11-07T10:09:54.756Z,11.10
2018-11-07T10:12:22.972Z,11.00
2018-11-07T10:14:51.199Z,11.10
2018-11-07T10:17:19.429Z,11.00
2018-11-07T10:19:47.897Z,10.90
2018-11-07T10:22:16.114Z,10.80
2018-11-07T10:24:44.577Z,10.90
2018-11-07T10:27:13.426Z,10.90
2018-11-07T10:29:41.935Z,10.90
2018-11-07T10:32:09.765Z,10.80
2018-11-07T10:34:38.031Z,10.80
2018-11-07T10:37:06.220Z,11.00
2018-11-07T10:39:34.486Z,11.00
2018-11-07T10:42:02.889Z,11.00
2018-11-07T10:44:31.212Z,10.90
2018-11-07T10:46:59.348Z,10.80
2018-11-07T10:49:27.604Z,10.60
2018-11-07T10:51:56.157Z,10.70
2018-11-07T10:54:24.560Z,10.60
2018-11-07T10:56:53.146Z,10.80
2018-11-07T10:59:21.447Z,10.80
2018-11-07T11:01:54.862Z,11.00
2018-11-07T11:04:23.096Z,10.90
2018-11-07T11:06:51.554Z,10.90
2018-11-07T11:09:19.799Z,10.90
2018-11-07T11:11:48.002Z,11.00
2018-11-07T11:14:16.244Z,11.00
2018-11-07T11:16:44.875Z,11.40
2018-11-07T11:19:13.117Z,11.60
2018-11-07T11:21:41.460Z,11.60
2018-11-07T11:24:09.652Z,11.80
2018-11-07T11:26:37.855Z,12.40
2018-11-07T11:29:06.191Z,12.90
2018-11-07T11:31:34.437Z,12.90
2018-11-07T11:34:02.889Z,12.80
2018-11-07T11:36:31.098Z,12.90
2018-11-07T11:38:59.303Z,13.00
2018-11-07T11:41:27.549Z,13.20
2018-11-07T11:43:55.768Z,13.40
2018-11-07T11:46:23.967Z,13.20
2018-11-07T11:48:52.406Z,13.30
2018-11-07T11:51:20.614Z,13.10
2018-11-07T11:53:49.175Z,13.00
2018-11-07T11:56:17.373Z,13.00
2018-11-07T11:58:45.596Z,13.10
2018-11-07T12:01:13.805Z,13.10
2018-11-07T12:03:42.050Z,13.10
2018-11-07T12:06:10.276Z,13.30
2018-11-07T12:08:38.484Z,13.50
2018-11-07T12:11:06.906Z,13.70
2018-11-07T12:13:35.104Z,13.90
2018-11-07T12:16:03.319Z,13.80
2018-11-07T12:18:31.524Z,13.70
2018-11-07T12:20:59.786Z,13.80
2018-11-07T12:23:28.196Z,14.20
2018-11-07T12:25:56.610Z,15.20
2018-11-07T12:28:25.064Z,16.30
2018-11-07T12:30:53.509Z,17.50
2018-11-07T12:33:21.712Z,18.10
2018-11-07T12:35:50.170Z,18.90
2018-11-07T12:38:18.380Z,19.90
2018-11-07T12:40:46.591Z,20.80
2018-11-07T12:43:15.035Z,21.30
2018-11-07T12:45:43.483Z,21.70
2018-11-07T12:48:11.691Z,21.10
2018-11-07T12:50:39.911Z,20.20
2018-11-07T12:53:08.124Z,18.90
2018-11-07T12:55:36.379Z,17.40
2018-11-07T12:58:05.080Z,16.60
2018-11-07T13:00:33.596Z,16.10
2018-11-07T13:03:01.871Z,15.80
2018-11-07T13:05:29.998Z,16.00
2018-11-07T13:07:59.431Z,16.30
2018-11-07T13:10:27.630Z,17.00
2018-11-07T13:12:56.059Z,17.80
2018-11-07T13:15:24.243Z,18.80
2018-11-07T13:17:53.035Z,19.50
2018-11-07T13:20:22.720Z,19.70
2018-11-07T13:22:52.027Z,19.50
2018-11-07T13:25:20.608Z,19.40
2018-11-07T13:27:49.038Z,19.50
2018-11-07T13:30:19.820Z,19.10
2018-11-07T13:32:48.111Z,18.70
2018-11-07T13:35:17.191Z,17.80
2018-11-07T13:37:46.421Z,17.20
2018-11-07T13:40:18.063Z,16.30
2018-11-07T13:42:46.287Z,16.10
2018-11-07T13:45:16.812Z,15.80
2018-11-07T13:47:46.159Z,15.70
2018-11-07T13:50:14.922Z,15.80
2018-11-07T13:52:43.143Z,16.00
2018-11-07T13:55:11.889Z,15.90
2018-11-07T13:57:40.482Z,16.00
2018-11-07T14:00:11.828Z,15.90
2018-11-07T14:02:40.493Z,15.60
2018-11-07T14:05:09.843Z,15.10
2018-11-07T14:07:39.016Z,15.00
2018-11-07T14:10:09.749Z,15.10
2018-11-07T14:12:38.544Z,15.40
2018-11-07T14:15:08.991Z,16.10
2018-11-07T14:17:37.227Z,16.70
2018-11-07T14:20:06.898Z,16.50
2018-11-07T14:22:35.132Z,15.90
2018-11-07T14:25:03.315Z,15.40
2018-11-07T14:27:31.656Z,14.90
2018-11-07T14:29:59.903Z,14.80
2018-11-07T14:32:28.833Z,14.60
2018-11-07T14:34:57.033Z,14.50
2018-11-07T14:37:25.676Z,14.40
2018-11-07T14:39:53.878Z,14.60
2018-11-07T14:42:22.074Z,14.80
2018-11-07T14:44:50.500Z,15.40
2018-11-07T14:47:18.964Z,15.90
2018-11-07T14:49:47.580Z,16.30
2018-11-07T14:52:16.558Z,16.30
2018-11-07T14:54:44.996Z,15.90
2018-11-07T14:57:13.186Z,15.50
2018-11-07T14:59:41.607Z,15.10
2018-11-07T15:02:09.838Z,14.60
2018-11-07T15:04:38.422Z,14.30
2018-11-07T15:07:06.703Z,14.10
2018-11-07T15:09:35.211Z,13.90
2018-11-07T15:12:03.438Z,13.50
2018-11-07T15:14:31.879Z,13.20
2018-11-07T15:17:00.112Z,13.00
2018-11-07T15:19:28.324Z,12.70
2018-11-07T15:21:56.544Z,12.50
2018-11-07T15:24:24.747Z,12.20
2018-11-07T15:26:53.274Z,12.00
2018-11-07T15:29:21.467Z,11.70
2018-11-07T15:31:49.914Z,11.50
2018-11-07T15:34:18.123Z,11.30
2018-11-07T15:36:46.347Z,11.20
2018-11-07T15:39:14.565Z,11.00
2018-11-07T15:41:43.107Z,10.80
2018-11-07T15:44:11.609Z,10.60
2018-11-07T15:46:40.168Z,10.50
2018-11-07T15:49:08.375Z,10.40
2018-11-07T15:51:38.471Z,10.20
2018-11-07T15:54:07.148Z,11.20
2018-11-07T15:56:36.034Z,10.00
2018-11-07T15:59:04.778Z,9.90
2018-11-07T16:01:35.099Z,9.70
2018-11-07T16:04:03.657Z,9.70
2018-11-07T16:06:31.863Z,9.60
2018-11-07T16:09:00.631Z,9.50
2018-11-07T16:11:29.727Z,9.40
2018-11-07T16:13:58.095Z,9.30
2018-11-07T16:16:27.178Z,9.20
2018-11-07T16:18:55.394Z,9.20
2018-11-07T16:21:23.608Z,9.10
2018-11-07T16:23:51.899Z,9.00
2018-11-07T16:26:20.222Z,8.90
2018-11-07T16:28:48.543Z,8.80
2018-11-07T16:31:16.687Z,8.80
2018-11-07T16:33:45.004Z,8.70
2018-11-07T16:36:13.387Z,8.60
2018-11-07T16:38:41.867Z,8.50
2018-11-07T16:41:10.112Z,8.40
2018-11-07T16:43:38.266Z,8.30
2018-11-07T16:46:06.476Z,8.20
2018-11-07T16:48:35.142Z,8.10
2018-11-07T16:51:03.350Z,8.00
2018-11-07T16:53:31.576Z,7.90
2018-11-07T16:55:59.787Z,7.90
2018-11-07T16:58:28.031Z,7.80
2018-11-07T17:00:56.655Z,7.70
2018-11-07T17:03:24.871Z,7.60
2018-11-07T17:05:53.113Z,7.60
2018-11-07T17:08:21.331Z,7.50
2018-11-07T17:10:49.534Z,7.50
2018-11-07T17:13:17.735Z,7.50
2018-11-07T17:15:46.219Z,7.40
2018-11-07T17:18:14.397Z,7.40
2018-11-07T17:20:42.623Z,7.30
2018-11-07T17:23:10.808Z,7.30
2018-11-07T17:25:39.043Z,7.20
2018-11-07T17:28:07.254Z,7.10
2018-11-07T17:30:35.451Z,7.10
2018-11-07T17:33:03.663Z,7.10
2018-11-07T17:35:31.883Z,7.10
2018-11-07T17:38:00.325Z,7.10
2018-11-07T17:40:28.616Z,7.10
2018-11-07T17:42:57.052Z,7.10
2018-11-07T17:45:25.278Z,7.10
2018-11-07T17:47:53.668Z,7.10
2018-11-07T17:50:22.641Z,7.00
2018-11-07T17:52:52.456Z,6.90
2018-11-07T17:55:21.547Z,7.00
2018-11-07T17:57:50.155Z,6.90
2018-11-07T18:00:20.099Z,6.80
2018-11-07T18:02:48.466Z,6.60
2018-11-07T18:05:16.887Z,6.50
2018-11-07T18:07:45.402Z,6.40
2018-11-07T18:10:15.902Z,6.30
2018-11-07T18:12:45.016Z,6.20
2018-11-07T18:15:13.483Z,6.10
2018-11-07T18:17:41.709Z,6.10
2018-11-07T18:20:11.383Z,6.00
2018-11-07T18:22:39.643Z,6.00
2018-11-07T18:25:08.931Z,5.90
2018-11-07T18:27:37.402Z,5.90
2018-11-07T18:30:06.991Z,5.80
2018-11-07T18:32:35.203Z,5.80
2018-11-07T18:35:03.720Z,5.80
2018-11-07T18:37:32.110Z,5.80
2018-11-07T18:40:00.559Z,5.80
2018-11-07T18:42:29.218Z,5.80
2018-11-07T18:44:57.444Z,5.80
2018-11-07T18:47:25.690Z,5.80
2018-11-07T18:49:54.156Z,5.80
2018-11-07T18:52:22.360Z,6.00
2018-11-07T18:54:50.582Z,6.10
2018-11-07T18:57:18.799Z,6.10
2018-11-07T19:02:14.993Z,6.00
2018-11-07T19:04:43.210Z,6.10
2018-11-07T19:07:11.422Z,6.10
2018-11-07T19:09:40.091Z,6.10
2018-11-07T19:12:08.339Z,6.00
2018-11-07T19:14:37.023Z,6.00
2018-11-07T19:17:05.696Z,6.00
2018-11-07T19:19:33.915Z,6.00
2018-11-07T19:22:02.136Z,6.00
2018-11-07T19:24:30.762Z,5.90
2018-11-07T19:26:59.209Z,5.90
2018-11-07T19:29:27.440Z,5.90
2018-11-07T19:31:55.662Z,5.90
2018-11-07T19:34:23.900Z,5.80
2018-11-07T19:36:52.348Z,5.80
2018-11-07T19:39:20.559Z,5.90
2018-11-07T19:41:48.767Z,5.80
2018-11-07T19:44:17.010Z,5.80
2018-11-07T19:46:45.267Z,5.80
2018-11-07T19:49:13.728Z,5.60
2018-11-07T19:51:41.948Z,5.60
2018-11-07T19:54:10.172Z,5.60
2018-11-07T19:56:38.378Z,5.50
2018-11-07T19:59:06.618Z,5.40
2018-11-07T20:01:34.825Z,5.30
2018-11-07T20:04:03.050Z,5.30
2018-11-07T20:06:31.514Z,5.20
2018-11-07T20:08:59.733Z,5.20
2018-11-07T20:11:28.158Z,5.20
2018-11-07T20:13:56.335Z,5.20
2018-11-07T20:16:24.594Z,5.20
2018-11-07T20:18:52.738Z,5.20
2018-11-07T20:21:21.200Z,5.20
2018-11-07T20:23:49.407Z,5.20
2018-11-07T20:26:17.603Z,5.20
2018-11-07T20:28:45.907Z,5.20
2018-11-07T20:31:14.003Z,5.20
2018-11-07T20:33:42.192Z,5.20
2018-11-07T20:36:10.616Z,5.10
2018-11-07T20:38:39.047Z,5.10
2018-11-07T20:41:07.258Z,5.20
2018-11-07T20:43:35.446Z,5.20
2018-11-07T20:46:03.639Z,5.20
2018-11-07T20:48:32.342Z,5.30
2018-11-07T20:51:00.518Z,5.30
2018-11-07T20:53:28.878Z,5.30
2018-11-07T20:55:57.083Z,5.30
2018-11-07T20:58:25.338Z,5.40
2018-11-07T21:00:53.543Z,5.40
2018-11-07T21:03:21.743Z,5.50
2018-11-07T21:05:49.943Z,5.50
2018-11-07T21:08:18.144Z,5.50
2018-11-07T21:10:46.376Z,5.60
2018-11-07T21:13:14.753Z,5.60
2018-11-07T21:15:42.982Z,5.60
2018-11-07T21:18:11.198Z,5.60
2018-11-07T21:20:39.507Z,5.60
2018-11-07T21:23:07.735Z,5.70
2018-11-07T21:25:35.959Z,5.70
2018-11-07T21:28:04.188Z,5.70
2018-11-07T21:30:32.411Z,5.70
2018-11-07T21:33:00.644Z,5.70
2018-11-07T21:35:29.091Z,5.70
2018-11-07T21:37:57.755Z,5.80
2018-11-07T21:40:25.982Z,5.80
2018-11-07T21:42:54.245Z,5.80
2018-11-07T21:45:22.863Z,5.80
2018-11-07T21:47:51.140Z,5.90
2018-11-07T21:50:19.441Z,5.90
2018-11-07T21:52:47.676Z,5.90
2018-11-07T21:55:15.902Z,5.90
2018-11-07T21:57:44.214Z,5.90
2018-11-07T22:00:16.703Z,5.90
2018-11-07T22:02:45.267Z,5.90
2018-11-07T22:05:14.180Z,5.90
2018-11-07T22:07:42.534Z,5.90
2018-11-07T22:10:11.850Z,5.90
2018-11-07T22:12:40.096Z,5.90
2018-11-07T22:15:08.967Z,5.90
2018-11-07T22:17:37.663Z,5.80
2018-11-07T22:20:17.139Z,5.90
2018-11-07T22:22:45.579Z,5.80
2018-11-07T22:25:13.847Z,5.80
2018-11-07T22:27:42.127Z,5.80
2018-11-07T22:30:11.976Z,5.80
2018-11-07T22:32:40.564Z,5.80
2018-11-07T22:35:10.708Z,5.80
2018-11-07T22:37:39.008Z,5.70
2018-11-07T22:40:08.741Z,5.70
2018-11-07T22:42:36.979Z,5.80
2018-11-07T22:45:05.715Z,5.80
2018-11-07T22:47:33.926Z,5.80
2018-11-07T22:50:02.119Z,5.80
2018-11-07T22:52:30.315Z,5.80
2018-11-07T22:54:58.523Z,5.90
2018-11-07T22:57:26.708Z,5.80
2018-11-07T22:59:54.916Z,5.80
2018-11-07T23:02:23.337Z,5.80
2018-11-07T23:04:51.545Z,5.80
2018-11-07T23:07:19.749Z,5.80
2018-11-07T23:09:47.987Z,5.80
2018-11-07T23:12:16.185Z,5.80
2018-11-07T23:14:44.392Z,5.80
2018-11-07T23:17:12.603Z,5.70
2018-11-07T23:19:40.799Z,5.70
2018-11-07T23:22:09.032Z,5.70
2018-11-07T23:24:37.243Z,5.70
2018-11-07T23:27:05.442Z,5.60
2018-11-07T23:29:33.642Z,5.60
2018-11-07T23:32:01.835Z,5.60
2018-11-07T23:34:30.036Z,5.60
2018-11-07T23:36:58.230Z,5.60
2018-11-07T23:39:26.435Z,5.50
2018-11-07T23:41:55.067Z,5.50
2018-11-07T23:44:23.263Z,5.50
2018-11-07T23:46:51.464Z,5.60
2018-11-07T23:49:19.868Z,5.50
2018-11-07T23:51:48.816Z,5.50
2018-11-07T23:54:18.055Z,5.40
2018-11-07T23:56:46.280Z,5.40
2018-11-07T23:59:14.462Z,5.40
